sensor_id;sensor_type;location;lat;lon;timestamp;P1;durP1;ratioP1;P2;durP2;ratioP2
78783;SDS011;68127;51.050;14.084;2024-01-30T00:00:27;23.35;;;11.45;;
78783;SDS011;68127;51.050;14.084;2024-01-30T00:02:52;22.30;;;11.38;;
78783;SDS011;68127;51.050;14.084;2024-01-30T00:05:18;21.65;;;10.90;;
78783;SDS011;68127;51.050;14.084;2024-01-30T00:07:43;20.13;;;10.82;;
78783;SDS011;68127;51.050;14.084;2024-01-30T00:10:08;27.30;;;11.60;;
78783;SDS011;68127;51.050;14.084;2024-01-30T00:12:33;22.35;;;11.13;;
78783;SDS011;68127;51.050;14.084;2024-01-30T00:14:59;21.65;;;11.15;;
78783;SDS011;68127;51.050;14.084;2024-01-30T00:17:24;24.73;;;11.15;;
78783;SDS011;68127;51.050;14.084;2024-01-30T00:19:51;24.75;;;11.18;;
78783;SDS011;68127;51.050;14.084;2024-01-30T00:22:17;22.83;;;11.07;;
78783;SDS011;68127;51.050;14.084;2024-01-30T00:24:42;21.80;;;10.75;;
78783;SDS011;68127;51.050;14.084;2024-01-30T00:27:07;21.35;;;11.05;;
78783;SDS011;68127;51.050;14.084;2024-01-30T00:29:33;19.23;;;10.32;;
78783;SDS011;68127;51.050;14.084;2024-01-30T00:31:59;25.60;;;11.75;;
78783;SDS011;68127;51.050;14.084;2024-01-30T00:34:24;22.75;;;10.48;;
78783;SDS011;68127;51.050;14.084;2024-01-30T00:36:50;23.85;;;11.25;;
78783;SDS011;68127;51.050;14.084;2024-01-30T00:39:15;24.13;;;11.57;;
78783;SDS011;68127;51.050;14.084;2024-01-30T00:41:40;22.33;;;11.75;;
78783;SDS011;68127;51.050;14.084;2024-01-30T00:44:06;26.98;;;11.68;;
78783;SDS011;68127;51.050;14.084;2024-01-30T00:46:31;17.77;;;10.10;;
78783;SDS011;68127;51.050;14.084;2024-01-30T00:48:56;24.00;;;10.63;;
78783;SDS011;68127;51.050;14.084;2024-01-30T00:51:22;17.30;;;9.93;;
78783;SDS011;68127;51.050;14.084;2024-01-30T00:53:47;20.25;;;11.48;;
78783;SDS011;68127;51.050;14.084;2024-01-30T00:56:12;22.58;;;10.90;;
78783;SDS011;68127;51.050;14.084;2024-01-30T00:58:38;23.23;;;11.20;;
78783;SDS011;68127;51.050;14.084;2024-01-30T01:01:03;23.10;;;11.35;;
78783;SDS011;68127;51.050;14.084;2024-01-30T01:03:28;23.00;;;10.82;;
78783;SDS011;68127;51.050;14.084;2024-01-30T01:05:54;18.83;;;10.52;;
78783;SDS011;68127;51.050;14.084;2024-01-30T01:08:19;20.85;;;11.43;;
78783;SDS011;68127;51.050;14.084;2024-01-30T01:10:45;23.45;;;11.10;;
78783;SDS011;68127;51.050;14.084;2024-01-30T01:13:10;22.48;;;11.05;;
78783;SDS011;68127;51.050;14.084;2024-01-30T01:15:35;24.02;;;10.63;;
78783;SDS011;68127;51.050;14.084;2024-01-30T01:18:01;21.73;;;10.73;;
78783;SDS011;68127;51.050;14.084;2024-01-30T01:20:26;20.17;;;10.38;;
78783;SDS011;68127;51.050;14.084;2024-01-30T01:22:51;20.85;;;11.20;;
78783;SDS011;68127;51.050;14.084;2024-01-30T01:25:17;23.75;;;11.80;;
78783;SDS011;68127;51.050;14.084;2024-01-30T01:27:42;21.17;;;11.38;;
78783;SDS011;68127;51.050;14.084;2024-01-30T01:30:09;18.83;;;9.90;;
78783;SDS011;68127;51.050;14.084;2024-01-30T01:32:35;26.83;;;12.73;;
78783;SDS011;68127;51.050;14.084;2024-01-30T01:35:01;21.13;;;10.70;;
78783;SDS011;68127;51.050;14.084;2024-01-30T01:37:27;27.92;;;12.80;;
78783;SDS011;68127;51.050;14.084;2024-01-30T01:39:52;24.17;;;11.27;;
78783;SDS011;68127;51.050;14.084;2024-01-30T01:42:17;23.88;;;11.27;;
78783;SDS011;68127;51.050;14.084;2024-01-30T01:44:43;21.55;;;11.18;;
78783;SDS011;68127;51.050;14.084;2024-01-30T01:47:08;25.08;;;11.80;;
78783;SDS011;68127;51.050;14.084;2024-01-30T01:49:33;20.90;;;11.50;;
78783;SDS011;68127;51.050;14.084;2024-01-30T01:51:59;19.40;;;10.45;;
78783;SDS011;68127;51.050;14.084;2024-01-30T01:54:24;26.17;;;11.75;;
78783;SDS011;68127;51.050;14.084;2024-01-30T01:56:50;25.00;;;11.55;;
78783;SDS011;68127;51.050;14.084;2024-01-30T01:59:16;24.50;;;11.80;;
78783;SDS011;68127;51.050;14.084;2024-01-30T02:01:42;26.20;;;12.00;;
78783;SDS011;68127;51.050;14.084;2024-01-30T02:04:08;23.95;;;11.90;;
78783;SDS011;68127;51.050;14.084;2024-01-30T02:06:34;21.98;;;10.70;;
78783;SDS011;68127;51.050;14.084;2024-01-30T02:09:00;21.13;;;11.02;;
78783;SDS011;68127;51.050;14.084;2024-01-30T02:11:25;25.58;;;12.18;;
78783;SDS011;68127;51.050;14.084;2024-01-30T02:13:50;25.45;;;11.65;;
78783;SDS011;68127;51.050;14.084;2024-01-30T02:16:16;25.80;;;11.82;;
78783;SDS011;68127;51.050;14.084;2024-01-30T02:18:42;24.10;;;12.63;;
78783;SDS011;68127;51.050;14.084;2024-01-30T02:21:10;21.30;;;11.65;;
78783;SDS011;68127;51.050;14.084;2024-01-30T02:23:35;28.30;;;12.48;;
78783;SDS011;68127;51.050;14.084;2024-01-30T02:26:01;25.35;;;12.18;;
78783;SDS011;68127;51.050;14.084;2024-01-30T02:28:26;25.55;;;11.65;;
78783;SDS011;68127;51.050;14.084;2024-01-30T02:30:57;22.95;;;12.15;;
78783;SDS011;68127;51.050;14.084;2024-01-30T02:33:22;24.50;;;11.77;;
78783;SDS011;68127;51.050;14.084;2024-01-30T02:35:48;26.05;;;12.30;;
78783;SDS011;68127;51.050;14.084;2024-01-30T02:38:13;23.60;;;12.25;;
78783;SDS011;68127;51.050;14.084;2024-01-30T02:40:39;23.08;;;12.07;;
78783;SDS011;68127;51.050;14.084;2024-01-30T02:43:05;20.67;;;11.93;;
78783;SDS011;68127;51.050;14.084;2024-01-30T02:45:30;25.08;;;11.70;;
78783;SDS011;68127;51.050;14.084;2024-01-30T02:47:55;22.63;;;12.93;;
78783;SDS011;68127;51.050;14.084;2024-01-30T02:50:21;25.40;;;11.65;;
78783;SDS011;68127;51.050;14.084;2024-01-30T02:52:46;23.88;;;12.70;;
78783;SDS011;68127;51.050;14.084;2024-01-30T02:55:11;28.33;;;12.15;;
78783;SDS011;68127;51.050;14.084;2024-01-30T02:57:37;23.75;;;12.30;;
78783;SDS011;68127;51.050;14.084;2024-01-30T03:00:03;22.40;;;11.43;;
78783;SDS011;68127;51.050;14.084;2024-01-30T03:02:29;25.23;;;12.18;;
78783;SDS011;68127;51.050;14.084;2024-01-30T03:04:54;21.95;;;11.50;;
78783;SDS011;68127;51.050;14.084;2024-01-30T03:07:19;26.98;;;12.35;;
78783;SDS011;68127;51.050;14.084;2024-01-30T03:09:44;26.58;;;11.52;;
78783;SDS011;68127;51.050;14.084;2024-01-30T03:12:10;24.08;;;12.25;;
78783;SDS011;68127;51.050;14.084;2024-01-30T03:14:35;22.10;;;11.48;;
78783;SDS011;68127;51.050;14.084;2024-01-30T03:17:00;26.33;;;12.60;;
78783;SDS011;68127;51.050;14.084;2024-01-30T03:19:26;23.50;;;12.10;;
78783;SDS011;68127;51.050;14.084;2024-01-30T03:21:51;27.17;;;12.43;;
78783;SDS011;68127;51.050;14.084;2024-01-30T03:24:16;27.10;;;12.52;;
78783;SDS011;68127;51.050;14.084;2024-01-30T03:26:42;22.95;;;12.13;;
78783;SDS011;68127;51.050;14.084;2024-01-30T03:29:08;26.48;;;12.40;;
78783;SDS011;68127;51.050;14.084;2024-01-30T03:31:33;26.73;;;11.82;;
78783;SDS011;68127;51.050;14.084;2024-01-30T03:33:58;25.10;;;13.13;;
78783;SDS011;68127;51.050;14.084;2024-01-30T03:36:23;25.05;;;12.10;;
78783;SDS011;68127;51.050;14.084;2024-01-30T03:38:49;25.42;;;12.93;;
78783;SDS011;68127;51.050;14.084;2024-01-30T03:41:14;24.10;;;12.43;;
78783;SDS011;68127;51.050;14.084;2024-01-30T03:43:40;22.85;;;12.25;;
78783;SDS011;68127;51.050;14.084;2024-01-30T03:46:05;26.77;;;13.02;;
78783;SDS011;68127;51.050;14.084;2024-01-30T03:48:31;28.30;;;13.13;;
78783;SDS011;68127;51.050;14.084;2024-01-30T03:50:56;25.33;;;12.60;;
78783;SDS011;68127;51.050;14.084;2024-01-30T03:53:21;23.33;;;12.30;;
78783;SDS011;68127;51.050;14.084;2024-01-30T03:55:46;26.02;;;12.85;;
78783;SDS011;68127;51.050;14.084;2024-01-30T03:58:12;24.85;;;13.75;;
78783;SDS011;68127;51.050;14.084;2024-01-30T04:00:37;24.67;;;12.88;;
78783;SDS011;68127;51.050;14.084;2024-01-30T04:03:02;26.98;;;13.07;;
78783;SDS011;68127;51.050;14.084;2024-01-30T04:05:28;24.50;;;12.27;;
78783;SDS011;68127;51.050;14.084;2024-01-30T04:07:53;23.58;;;13.07;;
78783;SDS011;68127;51.050;14.084;2024-01-30T04:10:18;21.80;;;11.82;;
78783;SDS011;68127;51.050;14.084;2024-01-30T04:12:44;23.15;;;11.25;;
78783;SDS011;68127;51.050;14.084;2024-01-30T04:15:09;24.55;;;12.98;;
78783;SDS011;68127;51.050;14.084;2024-01-30T04:17:34;22.25;;;12.55;;
78783;SDS011;68127;51.050;14.084;2024-01-30T04:20:00;23.42;;;12.15;;
78783;SDS011;68127;51.050;14.084;2024-01-30T04:22:25;31.25;;;13.25;;
78783;SDS011;68127;51.050;14.084;2024-01-30T04:24:50;27.40;;;12.52;;
78783;SDS011;68127;51.050;14.084;2024-01-30T04:27:15;24.15;;;12.05;;
78783;SDS011;68127;51.050;14.084;2024-01-30T04:29:41;25.23;;;12.32;;
78783;SDS011;68127;51.050;14.084;2024-01-30T04:32:06;28.20;;;12.18;;
78783;SDS011;68127;51.050;14.084;2024-01-30T04:34:32;24.92;;;11.80;;
78783;SDS011;68127;51.050;14.084;2024-01-30T04:36:57;28.23;;;12.25;;
78783;SDS011;68127;51.050;14.084;2024-01-30T04:39:22;21.83;;;11.07;;
78783;SDS011;68127;51.050;14.084;2024-01-30T04:41:47;22.27;;;12.20;;
78783;SDS011;68127;51.050;14.084;2024-01-30T04:44:13;27.40;;;12.32;;
78783;SDS011;68127;51.050;14.084;2024-01-30T04:46:38;26.23;;;12.38;;
78783;SDS011;68127;51.050;14.084;2024-01-30T04:49:04;25.42;;;11.98;;
78783;SDS011;68127;51.050;14.084;2024-01-30T04:51:29;27.48;;;12.07;;
78783;SDS011;68127;51.050;14.084;2024-01-30T04:53:55;25.40;;;12.00;;
78783;SDS011;68127;51.050;14.084;2024-01-30T04:56:20;27.20;;;12.05;;
78783;SDS011;68127;51.050;14.084;2024-01-30T04:58:45;20.48;;;11.82;;
78783;SDS011;68127;51.050;14.084;2024-01-30T05:01:14;28.25;;;12.75;;
78783;SDS011;68127;51.050;14.084;2024-01-30T05:03:40;24.75;;;12.63;;
78783;SDS011;68127;51.050;14.084;2024-01-30T05:06:05;23.20;;;11.55;;
78783;SDS011;68127;51.050;14.084;2024-01-30T05:08:31;24.70;;;12.48;;
78783;SDS011;68127;51.050;14.084;2024-01-30T05:10:56;26.27;;;12.60;;
78783;SDS011;68127;51.050;14.084;2024-01-30T05:13:21;25.35;;;12.15;;
78783;SDS011;68127;51.050;14.084;2024-01-30T05:15:47;25.52;;;12.07;;
78783;SDS011;68127;51.050;14.084;2024-01-30T05:18:12;27.25;;;12.60;;
78783;SDS011;68127;51.050;14.084;2024-01-30T05:20:37;24.10;;;11.80;;
78783;SDS011;68127;51.050;14.084;2024-01-30T05:23:02;25.38;;;11.98;;
78783;SDS011;68127;51.050;14.084;2024-01-30T05:25:28;27.02;;;13.02;;
78783;SDS011;68127;51.050;14.084;2024-01-30T05:27:53;25.67;;;12.50;;
78783;SDS011;68127;51.050;14.084;2024-01-30T05:30:18;26.83;;;12.77;;
78783;SDS011;68127;51.050;14.084;2024-01-30T05:32:44;23.30;;;12.32;;
78783;SDS011;68127;51.050;14.084;2024-01-30T05:35:09;26.80;;;13.15;;
78783;SDS011;68127;51.050;14.084;2024-01-30T05:37:35;21.90;;;11.55;;
78783;SDS011;68127;51.050;14.084;2024-01-30T05:40:00;28.92;;;12.20;;
78783;SDS011;68127;51.050;14.084;2024-01-30T05:42:25;21.73;;;11.27;;
78783;SDS011;68127;51.050;14.084;2024-01-30T05:44:52;24.88;;;12.23;;
78783;SDS011;68127;51.050;14.084;2024-01-30T05:47:17;23.58;;;12.32;;
78783;SDS011;68127;51.050;14.084;2024-01-30T05:49:42;25.60;;;12.68;;
78783;SDS011;68127;51.050;14.084;2024-01-30T05:52:07;22.27;;;11.90;;
78783;SDS011;68127;51.050;14.084;2024-01-30T05:54:33;27.95;;;12.38;;
78783;SDS011;68127;51.050;14.084;2024-01-30T05:56:58;28.10;;;11.95;;
78783;SDS011;68127;51.050;14.084;2024-01-30T05:59:24;27.10;;;12.80;;
78783;SDS011;68127;51.050;14.084;2024-01-30T06:01:49;27.73;;;13.70;;
78783;SDS011;68127;51.050;14.084;2024-01-30T06:04:14;27.70;;;13.23;;
78783;SDS011;68127;51.050;14.084;2024-01-30T06:06:40;31.42;;;12.88;;
78783;SDS011;68127;51.050;14.084;2024-01-30T06:09:05;25.20;;;12.57;;
78783;SDS011;68127;51.050;14.084;2024-01-30T06:11:31;23.35;;;12.60;;
78783;SDS011;68127;51.050;14.084;2024-01-30T06:13:56;25.00;;;12.90;;
78783;SDS011;68127;51.050;14.084;2024-01-30T06:16:22;24.05;;;11.75;;
78783;SDS011;68127;51.050;14.084;2024-01-30T06:18:47;24.60;;;13.07;;
78783;SDS011;68127;51.050;14.084;2024-01-30T06:21:13;21.90;;;12.60;;
78783;SDS011;68127;51.050;14.084;2024-01-30T06:23:38;25.17;;;11.93;;
78783;SDS011;68127;51.050;14.084;2024-01-30T06:26:03;28.73;;;13.38;;
78783;SDS011;68127;51.050;14.084;2024-01-30T06:28:29;27.45;;;12.82;;
78783;SDS011;68127;51.050;14.084;2024-01-30T06:30:57;25.65;;;11.10;;
78783;SDS011;68127;51.050;14.084;2024-01-30T06:33:23;23.70;;;12.50;;
78783;SDS011;68127;51.050;14.084;2024-01-30T06:35:48;23.63;;;11.50;;
78783;SDS011;68127;51.050;14.084;2024-01-30T06:38:13;25.40;;;12.70;;
78783;SDS011;68127;51.050;14.084;2024-01-30T06:40:40;26.50;;;12.23;;
78783;SDS011;68127;51.050;14.084;2024-01-30T06:43:06;29.45;;;12.05;;
78783;SDS011;68127;51.050;14.084;2024-01-30T06:45:32;24.50;;;12.07;;
78783;SDS011;68127;51.050;14.084;2024-01-30T06:47:58;24.77;;;13.05;;
78783;SDS011;68127;51.050;14.084;2024-01-30T06:50:23;24.10;;;11.90;;
78783;SDS011;68127;51.050;14.084;2024-01-30T06:52:48;23.27;;;11.55;;
78783;SDS011;68127;51.050;14.084;2024-01-30T06:55:13;22.45;;;11.75;;
78783;SDS011;68127;51.050;14.084;2024-01-30T06:57:39;24.77;;;12.48;;
78783;SDS011;68127;51.050;14.084;2024-01-30T07:00:04;24.25;;;11.73;;
78783;SDS011;68127;51.050;14.084;2024-01-30T07:02:30;21.98;;;12.05;;
78783;SDS011;68127;51.050;14.084;2024-01-30T07:04:55;23.52;;;11.82;;
78783;SDS011;68127;51.050;14.084;2024-01-30T07:07:20;24.92;;;12.48;;
78783;SDS011;68127;51.050;14.084;2024-01-30T07:09:46;25.35;;;12.13;;
78783;SDS011;68127;51.050;14.084;2024-01-30T07:12:12;22.30;;;12.10;;
78783;SDS011;68127;51.050;14.084;2024-01-30T07:14:37;23.95;;;11.70;;
78783;SDS011;68127;51.050;14.084;2024-01-30T07:17:03;26.73;;;13.13;;
78783;SDS011;68127;51.050;14.084;2024-01-30T07:19:28;22.80;;;11.77;;
78783;SDS011;68127;51.050;14.084;2024-01-30T07:21:53;28.08;;;12.73;;
78783;SDS011;68127;51.050;14.084;2024-01-30T07:24:19;24.55;;;11.63;;
78783;SDS011;68127;51.050;14.084;2024-01-30T07:26:44;24.88;;;12.73;;
78783;SDS011;68127;51.050;14.084;2024-01-30T07:29:09;24.42;;;12.20;;
78783;SDS011;68127;51.050;14.084;2024-01-30T07:31:35;21.10;;;10.55;;
78783;SDS011;68127;51.050;14.084;2024-01-30T07:34:00;20.67;;;11.68;;
78783;SDS011;68127;51.050;14.084;2024-01-30T07:36:26;29.73;;;12.52;;
78783;SDS011;68127;51.050;14.084;2024-01-30T07:38:51;23.42;;;12.18;;
78783;SDS011;68127;51.050;14.084;2024-01-30T07:41:19;24.20;;;12.35;;
78783;SDS011;68127;51.050;14.084;2024-01-30T07:43:44;22.02;;;10.52;;
78783;SDS011;68127;51.050;14.084;2024-01-30T07:46:09;23.63;;;11.38;;
78783;SDS011;68127;51.050;14.084;2024-01-30T07:48:35;23.10;;;11.50;;
78783;SDS011;68127;51.050;14.084;2024-01-30T07:51:18;22.73;;;12.27;;
78783;SDS011;68127;51.050;14.084;2024-01-30T07:53:43;22.00;;;11.68;;
78783;SDS011;68127;51.050;14.084;2024-01-30T07:56:09;18.70;;;10.80;;
78783;SDS011;68127;51.050;14.084;2024-01-30T07:58:35;24.48;;;12.55;;
78783;SDS011;68127;51.050;14.084;2024-01-30T08:01:00;22.30;;;12.20;;
78783;SDS011;68127;51.050;14.084;2024-01-30T08:03:25;22.20;;;11.95;;
78783;SDS011;68127;51.050;14.084;2024-01-30T08:05:51;21.40;;;12.20;;
78783;SDS011;68127;51.050;14.084;2024-01-30T08:08:16;24.67;;;11.95;;
78783;SDS011;68127;51.050;14.084;2024-01-30T08:10:41;22.92;;;11.82;;
78783;SDS011;68127;51.050;14.084;2024-01-30T08:13:07;21.98;;;11.90;;
78783;SDS011;68127;51.050;14.084;2024-01-30T08:15:33;25.40;;;11.48;;
78783;SDS011;68127;51.050;14.084;2024-01-30T08:17:59;23.35;;;12.55;;
78783;SDS011;68127;51.050;14.084;2024-01-30T08:20:24;19.95;;;11.65;;
78783;SDS011;68127;51.050;14.084;2024-01-30T08:22:50;22.63;;;12.27;;
78783;SDS011;68127;51.050;14.084;2024-01-30T08:25:16;24.23;;;11.77;;
78783;SDS011;68127;51.050;14.084;2024-01-30T08:27:41;22.80;;;11.85;;
78783;SDS011;68127;51.050;14.084;2024-01-30T08:30:06;23.88;;;12.32;;
78783;SDS011;68127;51.050;14.084;2024-01-30T08:32:32;26.63;;;12.18;;
78783;SDS011;68127;51.050;14.084;2024-01-30T08:34:57;24.13;;;11.70;;
78783;SDS011;68127;51.050;14.084;2024-01-30T08:37:22;21.27;;;11.18;;
78783;SDS011;68127;51.050;14.084;2024-01-30T08:39:48;25.30;;;13.18;;
78783;SDS011;68127;51.050;14.084;2024-01-30T08:42:13;24.30;;;13.07;;
78783;SDS011;68127;51.050;14.084;2024-01-30T08:44:38;21.23;;;11.32;;
78783;SDS011;68127;51.050;14.084;2024-01-30T08:47:04;25.38;;;12.80;;
78783;SDS011;68127;51.050;14.084;2024-01-30T08:49:29;25.02;;;12.68;;
78783;SDS011;68127;51.050;14.084;2024-01-30T08:51:54;20.10;;;12.50;;
78783;SDS011;68127;51.050;14.084;2024-01-30T08:54:19;24.30;;;12.95;;
78783;SDS011;68127;51.050;14.084;2024-01-30T08:56:45;21.85;;;11.40;;
78783;SDS011;68127;51.050;14.084;2024-01-30T08:59:10;29.00;;;13.35;;
78783;SDS011;68127;51.050;14.084;2024-01-30T09:01:36;24.77;;;12.45;;
78783;SDS011;68127;51.050;14.084;2024-01-30T09:04:01;20.80;;;12.48;;
78783;SDS011;68127;51.050;14.084;2024-01-30T09:06:26;25.65;;;12.98;;
78783;SDS011;68127;51.050;14.084;2024-01-30T09:08:53;23.80;;;12.50;;
78783;SDS011;68127;51.050;14.084;2024-01-30T09:11:18;22.80;;;12.38;;
78783;SDS011;68127;51.050;14.084;2024-01-30T09:13:44;25.38;;;12.50;;
78783;SDS011;68127;51.050;14.084;2024-01-30T09:16:09;24.90;;;13.48;;
78783;SDS011;68127;51.050;14.084;2024-01-30T09:18:34;26.58;;;13.52;;
78783;SDS011;68127;51.050;14.084;2024-01-30T09:21:00;24.25;;;12.77;;
78783;SDS011;68127;51.050;14.084;2024-01-30T09:23:26;25.00;;;12.45;;
78783;SDS011;68127;51.050;14.084;2024-01-30T09:25:52;23.60;;;12.35;;
78783;SDS011;68127;51.050;14.084;2024-01-30T09:28:17;24.10;;;12.38;;
78783;SDS011;68127;51.050;14.084;2024-01-30T09:30:43;21.65;;;12.18;;
78783;SDS011;68127;51.050;14.084;2024-01-30T09:33:08;22.50;;;13.05;;
78783;SDS011;68127;51.050;14.084;2024-01-30T09:35:33;19.33;;;11.60;;
78783;SDS011;68127;51.050;14.084;2024-01-30T09:37:58;21.10;;;12.10;;
78783;SDS011;68127;51.050;14.084;2024-01-30T09:40:24;22.13;;;11.68;;
78783;SDS011;68127;51.050;14.084;2024-01-30T09:42:50;23.33;;;13.02;;
78783;SDS011;68127;51.050;14.084;2024-01-30T09:45:15;24.73;;;13.15;;
78783;SDS011;68127;51.050;14.084;2024-01-30T09:47:43;20.50;;;12.43;;
78783;SDS011;68127;51.050;14.084;2024-01-30T09:50:09;22.83;;;12.13;;
78783;SDS011;68127;51.050;14.084;2024-01-30T09:52:35;25.33;;;12.55;;
78783;SDS011;68127;51.050;14.084;2024-01-30T09:55:00;21.77;;;11.38;;
78783;SDS011;68127;51.050;14.084;2024-01-30T09:57:26;21.35;;;12.18;;
78783;SDS011;68127;51.050;14.084;2024-01-30T09:59:51;24.48;;;12.38;;
78783;SDS011;68127;51.050;14.084;2024-01-30T10:02:19;26.80;;;13.43;;
78783;SDS011;68127;51.050;14.084;2024-01-30T10:04:44;23.00;;;12.57;;
78783;SDS011;68127;51.050;14.084;2024-01-30T10:07:09;22.08;;;11.27;;
78783;SDS011;68127;51.050;14.084;2024-01-30T10:09:36;24.00;;;12.32;;
78783;SDS011;68127;51.050;14.084;2024-01-30T10:12:01;22.65;;;12.98;;
78783;SDS011;68127;51.050;14.084;2024-01-30T10:14:28;24.33;;;13.02;;
78783;SDS011;68127;51.050;14.084;2024-01-30T10:16:54;26.20;;;13.52;;
78783;SDS011;68127;51.050;14.084;2024-01-30T10:19:20;23.45;;;13.02;;
78783;SDS011;68127;51.050;14.084;2024-01-30T10:21:45;22.77;;;13.07;;
78783;SDS011;68127;51.050;14.084;2024-01-30T10:24:11;22.95;;;12.43;;
78783;SDS011;68127;51.050;14.084;2024-01-30T10:26:38;23.05;;;13.20;;
78783;SDS011;68127;51.050;14.084;2024-01-30T10:29:04;25.30;;;13.52;;
78783;SDS011;68127;51.050;14.084;2024-01-30T10:31:29;27.80;;;12.40;;
78783;SDS011;68127;51.050;14.084;2024-01-30T10:33:54;21.95;;;13.23;;
78783;SDS011;68127;51.050;14.084;2024-01-30T10:36:20;24.75;;;12.57;;
78783;SDS011;68127;51.050;14.084;2024-01-30T10:38:49;22.25;;;12.07;;
78783;SDS011;68127;51.050;14.084;2024-01-30T10:41:15;25.58;;;13.25;;
78783;SDS011;68127;51.050;14.084;2024-01-30T10:43:45;26.83;;;13.57;;
78783;SDS011;68127;51.050;14.084;2024-01-30T10:46:20;25.98;;;12.70;;
78783;SDS011;68127;51.050;14.084;2024-01-30T10:48:50;24.75;;;13.07;;
78783;SDS011;68127;51.050;14.084;2024-01-30T10:51:19;22.95;;;12.18;;
78783;SDS011;68127;51.050;14.084;2024-01-30T10:53:46;26.05;;;13.95;;
78783;SDS011;68127;51.050;14.084;2024-01-30T10:56:11;23.83;;;12.23;;
78783;SDS011;68127;51.050;14.084;2024-01-30T10:58:37;24.40;;;12.60;;
78783;SDS011;68127;51.050;14.084;2024-01-30T11:01:03;22.52;;;12.65;;
78783;SDS011;68127;51.050;14.084;2024-01-30T11:03:28;25.65;;;12.95;;
78783;SDS011;68127;51.050;14.084;2024-01-30T11:05:58;28.40;;;13.55;;
78783;SDS011;68127;51.050;14.084;2024-01-30T11:08:24;25.08;;;13.48;;
78783;SDS011;68127;51.050;14.084;2024-01-30T11:10:54;23.45;;;13.55;;
78783;SDS011;68127;51.050;14.084;2024-01-30T11:13:20;27.15;;;13.77;;
78783;SDS011;68127;51.050;14.084;2024-01-30T11:15:47;24.90;;;13.23;;
78783;SDS011;68127;51.050;14.084;2024-01-30T11:18:22;27.73;;;14.05;;
78783;SDS011;68127;51.050;14.084;2024-01-30T11:20:47;25.52;;;13.75;;
78783;SDS011;68127;51.050;14.084;2024-01-30T11:23:13;30.27;;;13.43;;
78783;SDS011;68127;51.050;14.084;2024-01-30T11:25:39;25.65;;;12.82;;
78783;SDS011;68127;51.050;14.084;2024-01-30T11:28:04;23.25;;;13.50;;
78783;SDS011;68127;51.050;14.084;2024-01-30T11:30:32;28.10;;;13.88;;
78783;SDS011;68127;51.050;14.084;2024-01-30T11:33:02;28.70;;;14.05;;
78783;SDS011;68127;51.050;14.084;2024-01-30T11:35:29;28.05;;;13.63;;
78783;SDS011;68127;51.050;14.084;2024-01-30T11:37:57;29.27;;;13.88;;
78783;SDS011;68127;51.050;14.084;2024-01-30T11:40:22;28.52;;;14.18;;
78783;SDS011;68127;51.050;14.084;2024-01-30T11:42:49;29.35;;;14.02;;
78783;SDS011;68127;51.050;14.084;2024-01-30T11:45:14;28.88;;;14.48;;
78783;SDS011;68127;51.050;14.084;2024-01-30T11:47:39;31.90;;;14.65;;
78783;SDS011;68127;51.050;14.084;2024-01-30T11:50:05;28.13;;;14.30;;
78783;SDS011;68127;51.050;14.084;2024-01-30T11:52:32;26.75;;;13.95;;
78783;SDS011;68127;51.050;14.084;2024-01-30T11:54:58;29.02;;;14.88;;
78783;SDS011;68127;51.050;14.084;2024-01-30T11:57:23;27.05;;;14.00;;
78783;SDS011;68127;51.050;14.084;2024-01-30T11:59:49;28.30;;;13.82;;
78783;SDS011;68127;51.050;14.084;2024-01-30T12:02:17;29.70;;;14.52;;
78783;SDS011;68127;51.050;14.084;2024-01-30T12:04:42;23.13;;;13.20;;
78783;SDS011;68127;51.050;14.084;2024-01-30T12:07:07;32.03;;;14.43;;
78783;SDS011;68127;51.050;14.084;2024-01-30T12:09:33;28.00;;;13.25;;
78783;SDS011;68127;51.050;14.084;2024-01-30T12:11:58;28.17;;;13.75;;
78783;SDS011;68127;51.050;14.084;2024-01-30T12:14:24;31.33;;;14.88;;
78783;SDS011;68127;51.050;14.084;2024-01-30T12:16:50;29.05;;;14.90;;
78783;SDS011;68127;51.050;14.084;2024-01-30T12:19:22;29.38;;;14.52;;
78783;SDS011;68127;51.050;14.084;2024-01-30T12:21:53;26.58;;;13.90;;
78783;SDS011;68127;51.050;14.084;2024-01-30T12:24:20;25.42;;;13.77;;
78783;SDS011;68127;51.050;14.084;2024-01-30T12:26:45;28.00;;;14.90;;
78783;SDS011;68127;51.050;14.084;2024-01-30T12:29:10;27.50;;;13.93;;
78783;SDS011;68127;51.050;14.084;2024-01-30T12:31:36;25.98;;;13.82;;
78783;SDS011;68127;51.050;14.084;2024-01-30T12:34:01;29.75;;;14.07;;
78783;SDS011;68127;51.050;14.084;2024-01-30T12:36:26;30.50;;;15.18;;
78783;SDS011;68127;51.050;14.084;2024-01-30T12:38:53;26.45;;;13.82;;
78783;SDS011;68127;51.050;14.084;2024-01-30T12:41:19;27.90;;;13.95;;
78783;SDS011;68127;51.050;14.084;2024-01-30T12:43:45;27.15;;;14.13;;
78783;SDS011;68127;51.050;14.084;2024-01-30T12:46:10;29.23;;;14.50;;
78783;SDS011;68127;51.050;14.084;2024-01-30T12:48:35;25.80;;;13.35;;
78783;SDS011;68127;51.050;14.084;2024-01-30T12:54:16;33.47;;;15.27;;
78783;SDS011;68127;51.050;14.084;2024-01-30T12:56:41;28.83;;;14.00;;
78783;SDS011;68127;51.050;14.084;2024-01-30T12:59:06;33.67;;;15.70;;
78783;SDS011;68127;51.050;14.084;2024-01-30T13:01:31;30.13;;;15.52;;
78783;SDS011;68127;51.050;14.084;2024-01-30T13:03:57;29.15;;;15.07;;
78783;SDS011;68127;51.050;14.084;2024-01-30T13:06:23;26.67;;;13.77;;
78783;SDS011;68127;51.050;14.084;2024-01-30T13:08:48;29.83;;;15.05;;
78783;SDS011;68127;51.050;14.084;2024-01-30T13:11:14;30.13;;;15.32;;
78783;SDS011;68127;51.050;14.084;2024-01-30T13:13:39;30.48;;;15.40;;
78783;SDS011;68127;51.050;14.084;2024-01-30T13:16:04;25.95;;;13.25;;
78783;SDS011;68127;51.050;14.084;2024-01-30T13:18:30;26.35;;;13.48;;
78783;SDS011;68127;51.050;14.084;2024-01-30T13:20:56;27.02;;;14.57;;
78783;SDS011;68127;51.050;14.084;2024-01-30T13:23:21;25.92;;;15.00;;
78783;SDS011;68127;51.050;14.084;2024-01-30T13:25:46;33.65;;;14.93;;
78783;SDS011;68127;51.050;14.084;2024-01-30T13:28:11;26.52;;;14.57;;
78783;SDS011;68127;51.050;14.084;2024-01-30T13:30:37;28.65;;;13.82;;
78783;SDS011;68127;51.050;14.084;2024-01-30T13:33:03;29.25;;;13.68;;
78783;SDS011;68127;51.050;14.084;2024-01-30T13:35:28;28.67;;;14.15;;
78783;SDS011;68127;51.050;14.084;2024-01-30T13:37:53;28.05;;;14.63;;
78783;SDS011;68127;51.050;14.084;2024-01-30T13:40:19;27.67;;;14.50;;
78783;SDS011;68127;51.050;14.084;2024-01-30T13:42:44;24.73;;;13.73;;
78783;SDS011;68127;51.050;14.084;2024-01-30T13:45:09;24.45;;;13.73;;
78783;SDS011;68127;51.050;14.084;2024-01-30T13:47:35;25.83;;;12.50;;
78783;SDS011;68127;51.050;14.084;2024-01-30T13:50:00;24.17;;;13.23;;
78783;SDS011;68127;51.050;14.084;2024-01-30T13:52:25;22.50;;;13.00;;
78783;SDS011;68127;51.050;14.084;2024-01-30T13:54:52;26.05;;;13.20;;
78783;SDS011;68127;51.050;14.084;2024-01-30T13:57:17;28.17;;;13.38;;
78783;SDS011;68127;51.050;14.084;2024-01-30T13:59:42;27.20;;;13.00;;
78783;SDS011;68127;51.050;14.084;2024-01-30T14:02:07;27.55;;;13.52;;